createdAt,value
2022-08-17T00:00:43.601Z,53.49
2022-08-17T00:03:13.657Z,53.57
2022-08-17T00:05:47.998Z,53.92
2022-08-17T00:08:19.692Z,54.09
2022-08-17T00:10:49.364Z,54.06
2022-08-17T00:13:24.706Z,53.87
2022-08-17T00:15:55.671Z,54.14
2022-08-17T00:19:06.103Z,54.19
2022-08-17T00:21:15.529Z,54.33
2022-08-17T00:23:52.221Z,54.63
2022-08-17T00:26:35.824Z,54.91
2022-08-17T00:29:10.673Z,55.00
2022-08-17T00:31:48.707Z,55.39
2022-08-17T00:34:17.596Z,55.64
2022-08-17T00:36:47.449Z,55.93
2022-08-17T00:39:16.159Z,56.11
2022-08-17T00:41:44.697Z,56.51
2022-08-17T00:44:13.203Z,56.72
2022-08-17T00:46:44.382Z,56.89
2022-08-17T00:49:15.232Z,57.07
2022-08-17T00:51:51.350Z,57.21
2022-08-17T00:54:24.949Z,57.38
2022-08-17T00:57:00.281Z,57.59
2022-08-17T00:59:34.884Z,57.84
2022-08-17T01:02:06.269Z,58.18
2022-08-17T01:04:35.700Z,58.58
2022-08-17T01:07:07.033Z,58.84
2022-08-17T01:09:35.851Z,59.09
2022-08-17T01:12:06.614Z,59.46
2022-08-17T01:14:38.208Z,59.76
2022-08-17T01:17:07.749Z,59.91
2022-08-17T01:19:40.186Z,59.93
2022-08-17T01:22:21.754Z,59.72
2022-08-17T01:24:53.586Z,60.24
2022-08-17T01:27:23.122Z,60.41
2022-08-17T01:29:57.883Z,60.29
2022-08-17T01:32:28.050Z,60.67
2022-08-17T01:34:56.589Z,60.81
2022-08-17T01:37:34.458Z,60.72
2022-08-17T01:40:13.845Z,60.90
2022-08-17T01:42:49.862Z,61.08
2022-08-17T01:45:23.918Z,61.25
2022-08-17T01:47:53.703Z,61.40
2022-08-17T01:50:26.252Z,61.47
2022-08-17T01:53:01.062Z,61.43
2022-08-17T01:55:33.673Z,61.14
2022-08-17T01:58:02.342Z,61.88
2022-08-17T02:00:59.538Z,62.04
2022-08-17T02:03:19.454Z,62.40
2022-08-17T02:05:49.318Z,62.57
2022-08-17T02:08:20.694Z,62.54
2022-08-17T02:11:11.701Z,62.87
2022-08-17T02:13:40.784Z,63.02
2022-08-17T02:16:09.543Z,63.10
2022-08-17T02:18:37.977Z,63.23
2022-08-17T02:21:07.517Z,63.46
2022-08-17T02:23:42.762Z,63.72
2022-08-17T02:26:11.995Z,64.11
2022-08-17T02:28:54.835Z,64.11
2022-08-17T02:31:23.268Z,64.16
2022-08-17T02:34:00.389Z,64.43
2022-08-17T02:36:35.117Z,64.60
2022-08-17T02:39:09.238Z,64.55
2022-08-17T02:41:38.926Z,64.87
2022-08-17T02:44:08.080Z,65.03
2022-08-17T02:46:36.861Z,64.91
2022-08-17T02:49:06.217Z,65.20
2022-08-17T02:51:36.276Z,64.93
2022-08-17T02:54:39.874Z,64.99
2022-08-17T02:56:55.041Z,65.28
2022-08-17T02:59:24.354Z,65.33
2022-08-17T03:01:53.682Z,65.07
2022-08-17T03:04:22.267Z,65.17
2022-08-17T03:06:50.704Z,64.83
2022-08-17T03:09:20.458Z,64.97
2022-08-17T03:11:51.898Z,64.91
2022-08-17T03:14:26.216Z,65.18
2022-08-17T03:16:54.860Z,65.28
2022-08-17T03:19:23.626Z,65.09
2022-08-17T03:21:54.826Z,65.14
2022-08-17T03:24:28.838Z,65.15
2022-08-17T03:26:57.607Z,65.09
2022-08-17T03:29:26.074Z,64.99
2022-08-17T03:31:54.624Z,64.84
2022-08-17T03:34:23.169Z,64.91
2022-08-17T03:36:51.622Z,64.91
2022-08-17T03:39:19.978Z,64.86
2022-08-17T03:41:49.761Z,64.72
2022-08-17T03:44:18.132Z,64.63
2022-08-17T03:47:04.108Z,64.75
2022-08-17T03:49:50.004Z,64.78
2022-08-17T03:52:35.689Z,64.82
2022-08-17T03:55:22.067Z,64.64
2022-08-17T03:58:05.787Z,64.86
2022-08-17T04:00:36.318Z,64.53
2022-08-17T04:03:09.081Z,64.58
2022-08-17T04:05:37.601Z,64.52
2022-08-17T04:08:07.146Z,64.38
2022-08-17T04:10:41.356Z,64.46
2022-08-17T04:13:14.961Z,64.58
2022-08-17T04:15:52.640Z,64.46
2022-08-17T04:18:21.115Z,64.47
2022-08-17T04:20:49.486Z,64.16
2022-08-17T04:23:19.977Z,64.27
2022-08-17T04:25:51.610Z,64.15
2022-08-17T04:28:22.178Z,64.16
2022-08-17T04:30:50.912Z,64.30
2022-08-17T04:33:24.062Z,64.10
2022-08-17T04:35:55.880Z,64.33
2022-08-17T04:38:26.821Z,64.52
2022-08-17T04:41:14.166Z,65.05
2022-08-17T04:43:46.265Z,65.37
2022-08-17T04:46:17.865Z,65.25
2022-08-17T04:48:48.718Z,65.15
2022-08-17T04:51:22.897Z,64.73
2022-08-17T04:53:55.297Z,64.52
2022-08-17T04:56:26.258Z,64.23
2022-08-17T04:58:59.647Z,64.01
2022-08-17T05:01:31.568Z,63.69
2022-08-17T05:04:32.922Z,63.71
2022-08-17T05:06:55.090Z,63.26
2022-08-17T05:09:23.544Z,63.17
2022-08-17T05:11:52.820Z,62.87
2022-08-17T05:14:32.360Z,62.79
2022-08-17T05:17:07.066Z,62.58
2022-08-17T05:19:37.862Z,62.40
2022-08-17T05:22:07.155Z,62.22
2022-08-17T05:24:38.364Z,62.25
2022-08-17T05:27:07.692Z,61.91
2022-08-17T05:29:37.517Z,61.74
2022-08-17T05:32:38.674Z,61.62
2022-08-17T05:35:00.402Z,61.59
2022-08-17T05:37:29.097Z,61.49
2022-08-17T05:39:58.907Z,61.50
2022-08-17T05:42:27.303Z,61.32
2022-08-17T05:44:59.975Z,61.30
2022-08-17T05:47:29.553Z,61.43
2022-08-17T05:49:59.045Z,61.42
2022-08-17T05:52:42.832Z,61.28
2022-08-17T05:55:21.827Z,61.50
2022-08-17T05:58:06.587Z,61.49
2022-08-17T06:00:50.485Z,61.36
2022-08-17T06:03:41.393Z,61.17
2022-08-17T06:06:35.404Z,61.40
2022-08-17T06:09:33.960Z,61.54
2022-08-17T06:12:19.893Z,61.85
2022-08-17T06:15:10.685Z,62.05
2022-08-17T06:17:41.101Z,61.97
2022-08-17T06:20:14.117Z,61.76
2022-08-17T06:22:47.271Z,61.58
2022-08-17T06:25:19.922Z,61.47
2022-08-17T06:27:53.642Z,61.52
2022-08-17T06:30:25.958Z,61.23
2022-08-17T06:33:05.969Z,61.39
2022-08-17T06:35:43.737Z,60.98
2022-08-17T06:38:37.156Z,61.15
2022-08-17T06:41:18.966Z,60.67
2022-08-17T06:44:04.241Z,60.91
2022-08-17T06:46:38.497Z,60.59
2022-08-17T06:49:21.797Z,60.99
2022-08-17T06:51:55.486Z,60.92
2022-08-17T06:54:35.134Z,60.65
2022-08-17T06:57:14.928Z,60.92
2022-08-17T06:59:55.660Z,60.82
2022-08-17T07:02:52.032Z,60.83
2022-08-17T07:05:36.622Z,61.21
2022-08-17T07:08:18.605Z,61.18
2022-08-17T07:10:54.089Z,61.13
2022-08-17T07:13:34.480Z,61.20
2022-08-17T07:16:17.251Z,61.07
2022-08-17T07:18:46.572Z,61.04
2022-08-17T07:21:31.257Z,61.02
2022-08-17T07:24:29.333Z,60.98
2022-08-17T07:27:10.734Z,61.21
2022-08-17T07:29:44.537Z,61.65
2022-08-17T07:32:18.278Z,61.79
2022-08-17T07:35:11.205Z,62.22
2022-08-17T07:37:44.176Z,62.24
2022-08-17T07:40:28.489Z,62.32
2022-08-17T07:43:24.396Z,62.22
2022-08-17T07:46:37.258Z,62.18
2022-08-17T07:49:34.747Z,61.91
2022-08-17T07:52:24.088Z,61.99
2022-08-17T07:54:58.537Z,61.82
2022-08-17T07:57:37.114Z,61.89
2022-08-17T08:00:31.783Z,62.05
2022-08-17T08:03:25.400Z,62.35
2022-08-17T08:06:00.236Z,63.32
2022-08-17T08:08:34.523Z,64.27
2022-08-17T08:11:09.397Z,65.43
2022-08-17T08:13:42.871Z,66.04
2022-08-17T08:16:29.194Z,66.40
2022-08-17T08:19:00.981Z,66.80
2022-08-17T08:21:43.711Z,67.30
2022-08-17T08:24:37.388Z,68.06
2022-08-17T08:27:19.291Z,68.76
2022-08-17T08:29:55.789Z,69.47
2022-08-17T08:32:42.793Z,69.81
2022-08-17T08:35:23.770Z,70.74
2022-08-17T08:38:14.722Z,71.04
2022-08-17T08:41:07.126Z,71.50
2022-08-17T08:43:53.063Z,72.25
2022-08-17T08:46:31.796Z,72.36
2022-08-17T08:50:08.979Z,72.96
2022-08-17T08:53:08.322Z,73.31
2022-08-17T08:55:52.977Z,73.49
2022-08-17T08:58:41.930Z,73.36
2022-08-17T09:01:26.825Z,73.64
2022-08-17T09:04:44.955Z,73.66
2022-08-17T09:07:36.718Z,73.26
2022-08-17T09:10:10.272Z,73.62
2022-08-17T09:12:51.721Z,73.34
2022-08-17T09:15:27.640Z,73.16
2022-08-17T09:18:59.142Z,73.01
2022-08-17T09:20:58.375Z,73.06
2022-08-17T09:23:34.086Z,73.22
2022-08-17T09:26:11.630Z,73.11
2022-08-17T09:28:44.622Z,72.69
2022-08-17T09:31:18.993Z,72.75
2022-08-17T09:33:51.255Z,72.73
2022-08-17T09:36:29.245Z,72.90
2022-08-17T09:39:02.553Z,72.18
2022-08-17T09:41:49.238Z,72.79
2022-08-17T09:44:32.071Z,72.71
2022-08-17T09:47:12.050Z,72.19
2022-08-17T09:49:48.192Z,72.38
2022-08-17T09:52:23.437Z,72.37
2022-08-17T09:54:55.446Z,71.57
2022-08-17T09:57:44.996Z,71.61
2022-08-17T10:00:23.706Z,72.18
2022-08-17T10:03:28.272Z,72.37
2022-08-17T10:06:08.800Z,71.43
2022-08-17T10:08:45.515Z,70.70
2022-08-17T10:11:48.404Z,70.04
2022-08-17T10:14:37.305Z,69.15
2022-08-17T10:17:22.232Z,67.66
2022-08-17T10:20:01.094Z,68.11
2022-08-17T10:22:56.464Z,67.34
2022-08-17T10:25:54.678Z,67.84
2022-08-17T10:28:30.946Z,67.68
2022-08-17T10:31:33.874Z,67.38
2022-08-17T10:34:38.707Z,67.50
2022-08-17T10:37:37.455Z,66.87
2022-08-17T10:40:24.588Z,66.37
2022-08-17T10:43:02.457Z,65.78
2022-08-17T10:45:44.981Z,65.74
2022-08-17T10:48:32.945Z,65.72
2022-08-17T10:51:08.785Z,65.15
2022-08-17T10:54:01.557Z,64.98
2022-08-17T10:56:51.507Z,64.24
2022-08-17T10:59:52.809Z,63.84
2022-08-17T11:02:28.155Z,62.80
2022-08-17T11:05:23.764Z,62.88
2022-08-17T11:08:20.565Z,62.27
2022-08-17T11:11:14.574Z,61.24
2022-08-17T11:13:53.654Z,60.86
2022-08-17T11:16:47.920Z,60.10
2022-08-17T11:19:58.505Z,58.96
2022-08-17T11:23:41.622Z,57.83
2022-08-17T11:26:27.132Z,56.65
2022-08-17T11:29:01.350Z,55.33
2022-08-17T11:31:38.713Z,54.49
2022-08-17T11:34:19.743Z,54.27
2022-08-17T11:37:42.775Z,53.24
2022-08-17T11:40:56.126Z,52.03
2022-08-17T11:44:15.359Z,51.31
2022-08-17T11:47:19.224Z,49.63
2022-08-17T11:50:27.731Z,49.41
2022-08-17T11:52:57.001Z,49.03
2022-08-17T11:56:04.750Z,49.30
2022-08-17T11:58:42.041Z,49.19
2022-08-17T12:01:16.244Z,48.97
2022-08-17T12:03:55.412Z,48.22
2022-08-17T12:06:46.628Z,48.34
2022-08-17T12:09:20.826Z,48.39
2022-08-17T12:12:13.431Z,48.07
2022-08-17T12:15:11.079Z,48.63
2022-08-17T12:17:42.881Z,48.69
2022-08-17T12:20:24.046Z,48.74
2022-08-17T12:23:04.397Z,48.71
2022-08-17T12:25:40.313Z,48.80
2022-08-17T12:28:23.458Z,48.93
2022-08-17T12:30:54.174Z,48.69
2022-08-17T12:33:28.333Z,48.97
2022-08-17T12:36:03.990Z,48.60
2022-08-17T12:38:34.780Z,48.52
2022-08-17T12:41:21.628Z,48.67
2022-08-17T12:44:00.413Z,48.61
2022-08-17T12:46:33.579Z,48.34
2022-08-17T12:49:29.527Z,48.53
2022-08-17T12:52:14.177Z,48.39
2022-08-17T12:54:52.359Z,48.86
2022-08-17T12:57:24.146Z,48.44
2022-08-17T12:59:59.785Z,48.65
2022-08-17T13:02:42.544Z,48.68
2022-08-17T13:05:25.020Z,48.55
2022-08-17T13:07:54.542Z,48.48
2022-08-17T13:10:32.478Z,48.26
2022-08-17T13:13:05.393Z,47.53
2022-08-17T13:15:44.905Z,46.71
2022-08-17T13:18:39.549Z,45.79
2022-08-17T13:21:26.618Z,45.63
2022-08-17T13:24:05.667Z,45.51
2022-08-17T13:26:38.207Z,45.59
2022-08-17T13:29:18.629Z,45.01
2022-08-17T13:31:52.675Z,44.54
2022-08-17T13:35:12.622Z,44.22
2022-08-17T13:37:34.059Z,43.52
2022-08-17T13:40:27.890Z,41.98
2022-08-17T13:42:57.681Z,40.68
2022-08-17T13:45:39.651Z,40.30
2022-08-17T13:48:13.870Z,39.50
2022-08-17T13:50:49.208Z,39.11
2022-08-17T13:53:24.737Z,38.25
2022-08-17T13:55:57.040Z,37.42
2022-08-17T13:58:31.821Z,37.31
2022-08-17T14:01:16.431Z,36.45
2022-08-17T14:03:44.850Z,36.51
2022-08-17T14:06:22.111Z,35.89
2022-08-17T14:09:10.222Z,35.88
2022-08-17T14:11:39.622Z,35.53
2022-08-17T14:14:08.073Z,34.74
2022-08-17T14:16:40.285Z,34.65
2022-08-17T14:19:10.173Z,34.40
2022-08-17T14:21:41.046Z,34.04
2022-08-17T14:24:17.081Z,34.17
2022-08-17T14:26:45.799Z,33.52
2022-08-17T14:29:15.447Z,33.54
2022-08-17T14:31:53.251Z,33.74
2022-08-17T14:34:24.079Z,33.30
2022-08-17T14:36:54.022Z,33.03
2022-08-17T14:39:22.508Z,33.18
2022-08-17T14:41:52.995Z,33.55
2022-08-17T14:44:21.473Z,33.31
2022-08-17T14:46:50.470Z,33.44
2022-08-17T14:49:20.673Z,33.57
2022-08-17T14:51:49.489Z,33.25
2022-08-17T14:54:34.116Z,33.35
2022-08-17T14:57:22.495Z,33.02
2022-08-17T14:59:54.949Z,33.02
2022-08-17T15:02:29.824Z,33.13
2022-08-17T15:05:03.833Z,32.95
2022-08-17T15:07:32.496Z,32.86
2022-08-17T15:10:02.803Z,32.88
2022-08-17T15:12:34.029Z,32.70
2022-08-17T15:15:04.760Z,32.41
2022-08-17T15:17:44.617Z,32.15
2022-08-17T15:20:18.049Z,32.05
2022-08-17T15:22:49.636Z,31.58
2022-08-17T15:25:22.099Z,31.20
2022-08-17T15:27:50.988Z,31.08
2022-08-17T15:30:20.684Z,30.51
2022-08-17T15:32:55.160Z,30.46
2022-08-17T15:35:27.908Z,29.81
2022-08-17T15:38:06.195Z,29.88
2022-08-17T15:40:43.800Z,29.92
2022-08-17T15:43:16.870Z,29.97
2022-08-17T15:45:58.610Z,30.04
2022-08-17T15:48:41.338Z,29.58
2022-08-17T15:51:12.878Z,29.87
2022-08-17T15:53:43.153Z,29.71
2022-08-17T15:56:13.645Z,29.40
2022-08-17T15:58:44.515Z,29.83
2022-08-17T16:01:18.715Z,30.35
2022-08-17T16:04:06.637Z,30.62
2022-08-17T16:06:50.497Z,31.24
2022-08-17T16:09:18.977Z,31.93
2022-08-17T16:11:55.096Z,32.12
2022-08-17T16:14:24.101Z,32.56
2022-08-17T16:16:52.777Z,33.09
2022-08-17T16:19:21.220Z,32.79
2022-08-17T16:21:49.592Z,33.32
2022-08-17T16:24:18.001Z,33.57
2022-08-17T16:26:46.374Z,33.24
2022-08-17T16:29:16.325Z,33.68
2022-08-17T16:31:44.738Z,34.12
2022-08-17T16:34:17.114Z,33.79
2022-08-17T16:36:55.265Z,34.29
2022-08-17T16:39:27.348Z,34.61
2022-08-17T16:41:57.269Z,34.36
2022-08-17T16:44:28.954Z,34.45
2022-08-17T16:46:58.095Z,34.70
2022-08-17T16:49:36.941Z,34.96
2022-08-17T16:52:11.265Z,35.34
2022-08-17T16:54:43.312Z,35.25
2022-08-17T16:57:13.204Z,35.32
2022-08-17T16:59:47.770Z,35.05
2022-08-17T17:02:18.124Z,35.23
2022-08-17T17:04:53.929Z,35.32
2022-08-17T17:07:52.122Z,35.36
2022-08-17T17:10:25.262Z,35.40
2022-08-17T17:13:03.498Z,35.32
2022-08-17T17:15:54.283Z,35.60
2022-08-17T17:18:32.637Z,35.53
2022-08-17T17:21:02.171Z,35.69
2022-08-17T17:23:46.529Z,35.57
2022-08-17T17:26:48.329Z,35.87
2022-08-17T17:29:47.482Z,36.16
2022-08-17T17:32:25.342Z,36.04
2022-08-17T17:35:02.595Z,36.04
2022-08-17T17:37:35.824Z,36.38
2022-08-17T17:40:13.608Z,36.56
2022-08-17T17:42:44.724Z,36.71
2022-08-17T17:45:21.812Z,36.90
2022-08-17T17:47:51.795Z,36.82
2022-08-17T17:50:28.984Z,36.97
2022-08-17T17:53:04.065Z,37.01
2022-08-17T17:55:48.064Z,36.91
2022-08-17T17:58:36.946Z,36.91
2022-08-17T18:01:42.010Z,37.01
2022-08-17T18:04:23.526Z,37.54
2022-08-17T18:07:13.234Z,37.31
2022-08-17T18:10:02.002Z,37.58
2022-08-17T18:12:41.620Z,37.75
2022-08-17T18:15:25.677Z,37.64
2022-08-17T18:18:37.768Z,38.09
2022-08-17T18:21:16.803Z,38.09
2022-08-17T18:23:59.935Z,38.19
2022-08-17T18:26:46.520Z,38.31
2022-08-17T18:29:38.016Z,38.54
2022-08-17T18:32:35.638Z,38.75
2022-08-17T18:35:30.394Z,38.97
2022-08-17T18:38:22.828Z,39.09
2022-08-17T18:41:06.192Z,39.11
2022-08-17T18:43:52.633Z,39.45
2022-08-17T18:46:35.370Z,39.48
2022-08-17T18:49:07.720Z,39.69
2022-08-17T18:51:42.503Z,40.06
2022-08-17T18:54:23.922Z,40.00
2022-08-17T18:56:57.017Z,40.18
2022-08-17T18:59:42.274Z,40.26
2022-08-17T19:02:44.116Z,40.48
2022-08-17T19:05:29.125Z,40.60
2022-08-17T19:08:20.620Z,41.01
2022-08-17T19:10:55.130Z,41.20
2022-08-17T19:13:32.802Z,41.21
2022-08-17T19:16:12.325Z,41.62
2022-08-17T19:18:49.676Z,41.52
2022-08-17T19:21:24.640Z,41.64
2022-08-17T19:24:01.467Z,41.67
2022-08-17T19:26:50.531Z,41.80
2022-08-17T19:29:27.630Z,41.95
2022-08-17T19:31:58.747Z,42.12
2022-08-17T19:34:34.375Z,41.88
2022-08-17T19:37:10.653Z,42.09
2022-08-17T19:39:51.035Z,42.29
2022-08-17T19:42:33.931Z,42.59
2022-08-17T19:45:11.702Z,42.79
2022-08-17T19:47:55.432Z,43.23
2022-08-17T19:50:38.447Z,43.09
2022-08-17T19:53:21.273Z,43.09
2022-08-17T19:56:00.937Z,43.28
2022-08-17T19:58:48.200Z,43.52
2022-08-17T20:01:34.973Z,43.37
2022-08-17T20:04:14.165Z,43.57
2022-08-17T20:06:49.256Z,43.90
2022-08-17T20:09:21.859Z,43.94
2022-08-17T20:11:56.297Z,44.14
2022-08-17T20:14:40.089Z,44.38
2022-08-17T20:17:23.420Z,44.69
2022-08-17T20:20:00.072Z,44.43
2022-08-17T20:22:36.916Z,44.92
2022-08-17T20:25:32.633Z,45.29
2022-08-17T20:28:15.687Z,45.03
2022-08-17T20:30:46.113Z,45.44
2022-08-17T20:33:28.430Z,45.74
2022-08-17T20:36:19.231Z,45.68
2022-08-17T20:38:50.872Z,45.74
2022-08-17T20:41:23.186Z,45.87
2022-08-17T20:44:07.108Z,46.18
2022-08-17T20:46:57.934Z,45.72
2022-08-17T20:49:40.117Z,46.00
2022-08-17T20:52:13.397Z,46.33
2022-08-17T20:54:49.948Z,46.45
2022-08-17T20:57:48.990Z,46.56
2022-08-17T21:00:47.266Z,46.44
2022-08-17T21:03:52.738Z,46.57
2022-08-17T21:06:25.316Z,46.81
2022-08-17T21:09:19.641Z,47.05
2022-08-17T21:12:03.949Z,46.90
2022-08-17T21:14:57.363Z,46.99
2022-08-17T21:17:48.125Z,47.23
2022-08-17T21:20:32.969Z,48.03
2022-08-17T21:23:25.824Z,48.21
2022-08-17T21:26:13.822Z,48.41
2022-08-17T21:29:32.593Z,48.88
2022-08-17T21:32:24.199Z,48.64
2022-08-17T21:35:28.896Z,49.07
2022-08-17T21:38:04.985Z,49.31
2022-08-17T21:40:35.460Z,49.26
2022-08-17T21:43:35.219Z,49.58
2022-08-17T21:46:08.295Z,49.78
2022-08-17T21:48:45.378Z,49.51
2022-08-17T21:51:23.444Z,49.65
2022-08-17T21:53:54.289Z,49.90
2022-08-17T21:56:26.562Z,50.06
2022-08-17T21:59:00.561Z,50.01
2022-08-17T22:01:35.322Z,49.93
2022-08-17T22:04:08.629Z,49.83
2022-08-17T22:06:42.184Z,50.24
2022-08-17T22:09:25.694Z,50.16
2022-08-17T22:12:07.218Z,50.25
2022-08-17T22:14:52.485Z,50.44
2022-08-17T22:17:26.075Z,50.62
2022-08-17T22:19:57.816Z,50.71
2022-08-17T22:22:57.077Z,50.68
2022-08-17T22:25:26.706Z,50.83
2022-08-17T22:28:00.106Z,51.36
2022-08-17T22:30:36.584Z,50.90
2022-08-17T22:33:39.647Z,50.92
2022-08-17T22:36:29.448Z,51.10
2022-08-17T22:39:03.409Z,51.02
2022-08-17T22:41:43.833Z,50.91
2022-08-17T22:44:31.618Z,51.16
2022-08-17T22:47:11.426Z,51.09
2022-08-17T22:49:54.092Z,51.07
2022-08-17T22:52:34.429Z,51.27
2022-08-17T22:55:31.878Z,51.21
2022-08-17T22:58:19.004Z,51.65
2022-08-17T23:00:50.656Z,51.59
2022-08-17T23:03:22.895Z,51.69
2022-08-17T23:06:07.498Z,51.69
2022-08-17T23:08:43.645Z,52.04
2022-08-17T23:11:15.033Z,52.07
2022-08-17T23:13:44.418Z,52.12
2022-08-17T23:16:13.305Z,52.58
2022-08-17T23:18:41.721Z,52.25
2022-08-17T23:21:10.355Z,52.46
2022-08-17T23:23:44.629Z,52.89
2022-08-17T23:26:14.376Z,52.82
2022-08-17T23:28:43.766Z,53.43
2022-08-17T23:31:13.777Z,53.54
2022-08-17T23:33:42.529Z,53.51
2022-08-17T23:36:15.362Z,53.81
2022-08-17T23:38:46.788Z,54.02
2022-08-17T23:41:21.404Z,54.21
2022-08-17T23:43:53.671Z,54.34
2022-08-17T23:46:25.081Z,54.59
2022-08-17T23:48:54.202Z,54.70
2022-08-17T23:51:28.484Z,54.63
2022-08-17T23:54:07.698Z,54.53
2022-08-17T23:56:44.502Z,54.60
2022-08-17T23:59:13.526Z,54.59
